sensor_id;sensor_type;location;lat;lon;timestamp;pressure;altitude;pressure_sealevel;temperature;humidity
24746;BME280;12845;52.042;6.838;2023-05-10T00:00:31;-18419.13;;;14.54;100.00
24746;BME280;12845;52.042;6.838;2023-05-10T00:02:56;-18415.28;;;14.40;100.00
24746;BME280;12845;52.042;6.838;2023-05-10T00:05:22;-18413.25;;;14.32;100.00
24746;BME280;12845;52.042;6.838;2023-05-10T00:07:47;-18409.00;;;14.16;100.00
24746;BME280;12845;52.042;6.838;2023-05-10T00:10:12;-18408.44;;;14.14;100.00
24746;BME280;12845;52.042;6.838;2023-05-10T00:12:38;-18406.81;;;14.08;100.00
24746;BME280;12845;52.042;6.838;2023-05-10T00:15:03;-18404.63;;;14.00;100.00
24746;BME280;12845;52.042;6.838;2023-05-10T00:17:29;-18405.16;;;14.02;100.00
24746;BME280;12845;52.042;6.838;2023-05-10T00:19:54;-18405.03;;;14.02;100.00
24746;BME280;12845;52.042;6.838;2023-05-10T00:22:19;-18403.38;;;13.95;100.00
24746;BME280;12845;52.042;6.838;2023-05-10T00:24:45;-18402.97;;;13.94;100.00
24746;BME280;12845;52.042;6.838;2023-05-10T00:27:10;-18403.09;;;13.94;100.00
24746;BME280;12845;52.042;6.838;2023-05-10T00:29:35;-18401.75;;;13.89;100.00
24746;BME280;12845;52.042;6.838;2023-05-10T00:32:01;-18403.53;;;13.96;100.00
24746;BME280;12845;52.042;6.838;2023-05-10T00:34:26;-18401.47;;;13.88;100.00
24746;BME280;12845;52.042;6.838;2023-05-10T00:36:52;-18401.59;;;13.89;100.00
24746;BME280;12845;52.042;6.838;2023-05-10T00:39:17;-18402.28;;;13.91;100.00
24746;BME280;12845;52.042;6.838;2023-05-10T00:41:42;-18397.75;;;13.74;100.00
24746;BME280;12845;52.042;6.838;2023-05-10T00:44:07;-18397.34;;;13.73;100.00
24746;BME280;12845;52.042;6.838;2023-05-10T00:46:33;-18398.31;;;13.76;100.00
24746;BME280;12845;52.042;6.838;2023-05-10T00:48:58;-18399.69;;;13.82;100.00
24746;BME280;12845;52.042;6.838;2023-05-10T00:51:23;-18400.22;;;13.84;100.00
24746;BME280;12845;52.042;6.838;2023-05-10T00:53:49;-18400.50;;;13.85;100.00
24746;BME280;12845;52.042;6.838;2023-05-10T00:56:14;-18400.78;;;13.86;100.00
24746;BME280;12845;52.042;6.838;2023-05-10T00:58:40;-18400.22;;;13.84;100.00
24746;BME280;12845;52.042;6.838;2023-05-10T01:01:05;-18400.66;;;13.85;100.00
24746;BME280;12845;52.042;6.838;2023-05-10T01:03:32;-18399.97;;;13.83;100.00
24746;BME280;12845;52.042;6.838;2023-05-10T01:05:57;-18399.41;;;13.81;100.00
24746;BME280;12845;52.042;6.838;2023-05-10T01:08:22;-18399.41;;;13.81;100.00
24746;BME280;12845;52.042;6.838;2023-05-10T01:10:48;-18401.31;;;13.88;100.00
24746;BME280;12845;52.042;6.838;2023-05-10T01:13:18;-18401.59;;;13.89;100.00
24746;BME280;12845;52.042;6.838;2023-05-10T01:15:48;-18403.66;;;13.96;100.00
24746;BME280;12845;52.042;6.838;2023-05-10T01:18:13;-18402.97;;;13.94;100.00
24746;BME280;12845;52.042;6.838;2023-05-10T01:20:40;-18405.31;;;14.03;100.00
24746;BME280;12845;52.042;6.838;2023-05-10T01:23:11;-18405.16;;;14.02;100.00
24746;BME280;12845;52.042;6.838;2023-05-10T01:28:26;-18402.16;;;13.91;100.00
24746;BME280;12845;52.042;6.838;2023-05-10T01:33:27;-18399.00;;;13.79;100.00
24746;BME280;12845;52.042;6.838;2023-05-10T01:35:58;-18395.31;;;13.65;100.00
24746;BME280;12845;52.042;6.838;2023-05-10T01:40:59;-18396.13;;;13.68;100.00
24746;BME280;12845;52.042;6.838;2023-05-10T01:43:30;-18397.50;;;13.73;100.00
24746;BME280;12845;52.042;6.838;2023-05-10T01:46:02;-18400.78;;;13.86;100.00
24746;BME280;12845;52.042;6.838;2023-05-10T01:48:35;-18396.94;;;13.71;100.00
24746;BME280;12845;52.042;6.838;2023-05-10T01:51:00;-18395.84;;;13.67;100.00
24746;BME280;12845;52.042;6.838;2023-05-10T01:53:26;-18395.84;;;13.67;100.00
24746;BME280;12845;52.042;6.838;2023-05-10T01:55:52;-18395.84;;;13.67;100.00
24746;BME280;12845;52.042;6.838;2023-05-10T01:58:21;-18395.31;;;13.65;100.00
24746;BME280;12845;52.042;6.838;2023-05-10T02:00:47;-18394.22;;;13.61;100.00
24746;BME280;12845;52.042;6.838;2023-05-10T02:03:14;-18394.63;;;13.63;100.00
24746;BME280;12845;52.042;6.838;2023-05-10T02:05:41;-18396.94;;;13.71;100.00
24746;BME280;12845;52.042;6.838;2023-05-10T02:08:07;-18396.00;;;13.68;100.00
24746;BME280;12845;52.042;6.838;2023-05-10T02:10:35;-18394.75;;;13.63;100.00
24746;BME280;12845;52.042;6.838;2023-05-10T02:13:02;-18395.44;;;13.66;100.00
24746;BME280;12845;52.042;6.838;2023-05-10T02:15:27;-18396.53;;;13.70;100.00
24746;BME280;12845;52.042;6.838;2023-05-10T02:17:56;-18398.19;;;13.76;100.00
24746;BME280;12845;52.042;6.838;2023-05-10T02:20:23;-18397.91;;;13.75;100.00
24746;BME280;12845;52.042;6.838;2023-05-10T02:22:49;-18397.22;;;13.72;100.00
24746;BME280;12845;52.042;6.838;2023-05-10T02:25:15;-18396.41;;;13.69;100.00
24746;BME280;12845;52.042;6.838;2023-05-10T02:27:42;-18395.03;;;13.64;100.00
24746;BME280;12845;52.042;6.838;2023-05-10T02:30:09;-18390.91;;;13.49;100.00
24746;BME280;12845;52.042;6.838;2023-05-10T02:32:35;-18391.06;;;13.49;100.00
24746;BME280;12845;52.042;6.838;2023-05-10T02:35:01;-18395.03;;;13.64;100.00
24746;BME280;12845;52.042;6.838;2023-05-10T02:37:27;-18394.75;;;13.63;100.00
24746;BME280;12845;52.042;6.838;2023-05-10T02:39:54;-18395.84;;;13.67;100.00
24746;BME280;12845;52.042;6.838;2023-05-10T02:42:22;-18397.75;;;13.74;100.00
24746;BME280;12845;52.042;6.838;2023-05-10T02:44:48;-18395.31;;;13.65;100.00
24746;BME280;12845;52.042;6.838;2023-05-10T02:47:15;-18393.66;;;13.59;100.00
24746;BME280;12845;52.042;6.838;2023-05-10T02:49:41;-18394.06;;;13.61;100.00
24746;BME280;12845;52.042;6.838;2023-05-10T02:52:06;-18397.50;;;13.73;100.00
24746;BME280;12845;52.042;6.838;2023-05-10T02:54:34;-18398.03;;;13.75;100.00
24746;BME280;12845;52.042;6.838;2023-05-10T02:57:04;-18398.03;;;13.75;100.00
24746;BME280;12845;52.042;6.838;2023-05-10T02:59:31;-18397.09;;;13.72;100.00
24746;BME280;12845;52.042;6.838;2023-05-10T03:01:57;-18397.22;;;13.72;100.00
24746;BME280;12845;52.042;6.838;2023-05-10T03:04:23;-18397.75;;;13.74;100.00
24746;BME280;12845;52.042;6.838;2023-05-10T03:06:48;-18398.31;;;13.76;100.00
24746;BME280;12845;52.042;6.838;2023-05-10T03:09:14;-18396.94;;;13.71;100.00
24746;BME280;12845;52.042;6.838;2023-05-10T03:14:21;-18401.31;;;13.88;100.00
24746;BME280;12845;52.042;6.838;2023-05-10T03:17:00;-18397.63;;;13.74;100.00
24746;BME280;12845;52.042;6.838;2023-05-10T03:19:30;-18399.97;;;13.83;100.00
24746;BME280;12845;52.042;6.838;2023-05-10T03:21:59;-18403.25;;;13.95;100.00
24746;BME280;12845;52.042;6.838;2023-05-10T03:24:28;-18400.22;;;13.84;100.00
24746;BME280;12845;52.042;6.838;2023-05-10T03:26:56;-18400.09;;;13.83;100.00
24746;BME280;12845;52.042;6.838;2023-05-10T03:29:24;-18401.19;;;13.87;100.00
24746;BME280;12845;52.042;6.838;2023-05-10T03:31:51;-18404.75;;;14.00;100.00
24746;BME280;12845;52.042;6.838;2023-05-10T03:34:16;-18405.31;;;14.03;100.00
24746;BME280;12845;52.042;6.838;2023-05-10T03:36:42;-18406.25;;;14.06;100.00
24746;BME280;12845;52.042;6.838;2023-05-10T03:39:07;-18405.03;;;14.02;100.00
24746;BME280;12845;52.042;6.838;2023-05-10T03:41:32;-18406.00;;;14.05;100.00
24746;BME280;12845;52.042;6.838;2023-05-10T03:43:58;-18409.56;;;14.18;100.00
24746;BME280;12845;52.042;6.838;2023-05-10T03:46:23;-18405.16;;;14.02;100.00
24746;BME280;12845;52.042;6.838;2023-05-10T03:48:48;-18401.59;;;13.89;100.00
24746;BME280;12845;52.042;6.838;2023-05-10T03:51:13;-18402.69;;;13.93;100.00
24746;BME280;12845;52.042;6.838;2023-05-10T03:53:38;-18402.41;;;13.92;100.00
24746;BME280;12845;52.042;6.838;2023-05-10T03:56:04;-18403.09;;;13.94;100.00
24746;BME280;12845;52.042;6.838;2023-05-10T03:58:29;-18405.72;;;14.04;100.00
24746;BME280;12845;52.042;6.838;2023-05-10T04:00:54;-18397.91;;;13.75;100.00
24746;BME280;12845;52.042;6.838;2023-05-10T04:03:20;-18397.50;;;13.73;100.00
24746;BME280;12845;52.042;6.838;2023-05-10T04:05:45;-18399.69;;;13.82;100.00
24746;BME280;12845;52.042;6.838;2023-05-10T04:08:10;-18397.63;;;13.74;100.00
24746;BME280;12845;52.042;6.838;2023-05-10T04:10:36;-18400.50;;;13.85;100.00
24746;BME280;12845;52.042;6.838;2023-05-10T04:13:01;-18399.69;;;13.82;100.00
24746;BME280;12845;52.042;6.838;2023-05-10T04:15:26;-18404.34;;;13.99;100.00
24746;BME280;12845;52.042;6.838;2023-05-10T04:17:51;-18405.03;;;14.02;100.00
24746;BME280;12845;52.042;6.838;2023-05-10T04:20:17;-18407.63;;;14.11;100.00
24746;BME280;12845;52.042;6.838;2023-05-10T04:22:42;-18405.56;;;14.04;100.00
24746;BME280;12845;52.042;6.838;2023-05-10T04:25:07;-18406.00;;;14.05;100.00
24746;BME280;12845;52.042;6.838;2023-05-10T04:27:33;-18402.97;;;13.94;100.00
24746;BME280;12845;52.042;6.838;2023-05-10T04:29:58;-18404.75;;;14.00;100.00
24746;BME280;12845;52.042;6.838;2023-05-10T04:32:23;-18402.56;;;13.92;100.00
24746;BME280;12845;52.042;6.838;2023-05-10T04:34:48;-18406.00;;;14.05;100.00
24746;BME280;12845;52.042;6.838;2023-05-10T04:37:14;-18406.25;;;14.06;100.00
24746;BME280;12845;52.042;6.838;2023-05-10T04:39:39;-18405.03;;;14.02;100.00
24746;BME280;12845;52.042;6.838;2023-05-10T04:42:04;-18406.25;;;14.06;100.00
24746;BME280;12845;52.042;6.838;2023-05-10T04:44:30;-18404.88;;;14.01;100.00
24746;BME280;12845;52.042;6.838;2023-05-10T04:46:56;-18402.97;;;13.94;100.00
24746;BME280;12845;52.042;6.838;2023-05-10T04:49:21;-18408.59;;;14.15;100.00
24746;BME280;12845;52.042;6.838;2023-05-10T04:51:46;-18410.63;;;14.22;100.00
24746;BME280;12845;52.042;6.838;2023-05-10T04:54:11;-18406.94;;;14.09;100.00
24746;BME280;12845;52.042;6.838;2023-05-10T04:56:37;-18409.97;;;14.20;100.00
24746;BME280;12845;52.042;6.838;2023-05-10T04:59:02;-18412.16;;;14.28;100.00
24746;BME280;12845;52.042;6.838;2023-05-10T05:01:27;-18409.81;;;14.19;100.00
24746;BME280;12845;52.042;6.838;2023-05-10T05:03:52;-18404.06;;;13.98;100.00
24746;BME280;12845;52.042;6.838;2023-05-10T05:06:18;-18405.16;;;14.02;100.00
24746;BME280;12845;52.042;6.838;2023-05-10T05:08:43;-18408.44;;;14.14;100.00
24746;BME280;12845;52.042;6.838;2023-05-10T05:11:08;-18409.00;;;14.16;100.00
24746;BME280;12845;52.042;6.838;2023-05-10T05:13:34;-18401.47;;;13.88;100.00
24746;BME280;12845;52.042;6.838;2023-05-10T05:16:00;-18404.34;;;13.99;100.00
24746;BME280;12845;52.042;6.838;2023-05-10T05:18:25;-18404.88;;;14.01;100.00
24746;BME280;12845;52.042;6.838;2023-05-10T05:20:51;-18406.81;;;14.08;100.00
24746;BME280;12845;52.042;6.838;2023-05-10T05:23:16;-18406.53;;;14.07;100.00
24746;BME280;12845;52.042;6.838;2023-05-10T05:25:41;-18408.31;;;14.14;100.00
24746;BME280;12845;52.042;6.838;2023-05-10T05:28:07;-18409.97;;;14.20;100.00
24746;BME280;12845;52.042;6.838;2023-05-10T05:30:32;-18412.56;;;14.30;100.00
24746;BME280;12845;52.042;6.838;2023-05-10T05:32:57;-18414.19;;;14.36;100.00
24746;BME280;12845;52.042;6.838;2023-05-10T05:35:22;-18414.34;;;14.36;100.00
24746;BME280;12845;52.042;6.838;2023-05-10T05:37:48;-18415.03;;;14.39;100.00
24746;BME280;12845;52.042;6.838;2023-05-10T05:40:13;-18412.56;;;14.30;100.00
24746;BME280;12845;52.042;6.838;2023-05-10T05:42:39;-18411.31;;;14.25;100.00
24746;BME280;12845;52.042;6.838;2023-05-10T05:45:04;-18411.72;;;14.27;100.00
24746;BME280;12845;52.042;6.838;2023-05-10T05:47:30;-18412.16;;;14.28;100.00
24746;BME280;12845;52.042;6.838;2023-05-10T05:49:55;-18415.28;;;14.40;100.00
24746;BME280;12845;52.042;6.838;2023-05-10T05:52:20;-18406.13;;;14.06;100.00
24746;BME280;12845;52.042;6.838;2023-05-10T05:54:46;-18410.22;;;14.21;100.00
24746;BME280;12845;52.042;6.838;2023-05-10T05:57:11;-18408.72;;;14.15;100.00
24746;BME280;12845;52.042;6.838;2023-05-10T05:59:37;-18411.19;;;14.25;100.00
24746;BME280;12845;52.042;6.838;2023-05-10T06:02:06;-18405.44;;;14.03;100.00
24746;BME280;12845;52.042;6.838;2023-05-10T06:04:32;-18407.91;;;14.12;100.00
24746;BME280;12845;52.042;6.838;2023-05-10T06:06:57;-18407.34;;;14.10;100.00
24746;BME280;12845;52.042;6.838;2023-05-10T06:09:22;-18402.28;;;13.91;100.00
24746;BME280;12845;52.042;6.838;2023-05-10T06:11:49;-18403.66;;;13.96;100.00
24746;BME280;12845;52.042;6.838;2023-05-10T06:14:14;-18404.88;;;14.01;100.00
24746;BME280;12845;52.042;6.838;2023-05-10T06:16:39;-18406.53;;;14.07;100.00
24746;BME280;12845;52.042;6.838;2023-05-10T06:19:05;-18405.56;;;14.04;100.00
24746;BME280;12845;52.042;6.838;2023-05-10T06:21:30;-18406.41;;;14.07;100.00
24746;BME280;12845;52.042;6.838;2023-05-10T06:23:56;-18410.78;;;14.23;100.00
24746;BME280;12845;52.042;6.838;2023-05-10T06:26:21;-18414.63;;;14.37;100.00
24746;BME280;12845;52.042;6.838;2023-05-10T06:28:46;-18413.94;;;14.35;100.00
24746;BME280;12845;52.042;6.838;2023-05-10T06:31:11;-18413.09;;;14.32;100.00
24746;BME280;12845;52.042;6.838;2023-05-10T06:33:37;-18413.66;;;14.34;100.00
24746;BME280;12845;52.042;6.838;2023-05-10T06:36:02;-18413.53;;;14.33;100.00
24746;BME280;12845;52.042;6.838;2023-05-10T06:38:28;-18413.38;;;14.33;100.00
24746;BME280;12845;52.042;6.838;2023-05-10T06:40:53;-18416.38;;;14.44;100.00
24746;BME280;12845;52.042;6.838;2023-05-10T06:43:18;-18413.94;;;14.35;100.00
24746;BME280;12845;52.042;6.838;2023-05-10T06:45:43;-18415.28;;;14.40;100.00
24746;BME280;12845;52.042;6.838;2023-05-10T06:48:09;-18417.50;;;14.48;100.00
24746;BME280;12845;52.042;6.838;2023-05-10T06:50:34;-18418.31;;;14.51;100.00
24746;BME280;12845;52.042;6.838;2023-05-10T06:52:59;-18415.84;;;14.42;100.00
24746;BME280;12845;52.042;6.838;2023-05-10T06:55:25;-18415.84;;;14.42;100.00
24746;BME280;12845;52.042;6.838;2023-05-10T06:57:50;-18416.13;;;14.43;100.00
24746;BME280;12845;52.042;6.838;2023-05-10T07:00:16;-18414.75;;;14.38;100.00
24746;BME280;12845;52.042;6.838;2023-05-10T07:02:41;-18414.88;;;14.38;100.00
24746;BME280;12845;52.042;6.838;2023-05-10T07:05:07;-18417.22;;;14.47;100.00
24746;BME280;12845;52.042;6.838;2023-05-10T07:07:32;-18419.13;;;14.54;100.00
24746;BME280;12845;52.042;6.838;2023-05-10T07:09:57;-18419.41;;;14.55;100.00
24746;BME280;12845;52.042;6.838;2023-05-10T07:12:23;-18421.59;;;14.63;100.00
24746;BME280;12845;52.042;6.838;2023-05-10T07:14:48;-18420.78;;;14.60;100.00
24746;BME280;12845;52.042;6.838;2023-05-10T07:17:13;-18421.88;;;14.64;100.00
24746;BME280;12845;52.042;6.838;2023-05-10T07:19:38;-18422.56;;;14.67;100.00
24746;BME280;12845;52.042;6.838;2023-05-10T07:22:04;-18422.16;;;14.65;100.00
24746;BME280;12845;52.042;6.838;2023-05-10T07:24:29;-18425.16;;;14.77;100.00
24746;BME280;12845;52.042;6.838;2023-05-10T07:26:56;-18425.97;;;14.80;100.00
24746;BME280;12845;52.042;6.838;2023-05-10T07:29:21;-18425.56;;;14.78;100.00
24746;BME280;12845;52.042;6.838;2023-05-10T07:31:46;-18425.84;;;14.79;100.00
24746;BME280;12845;52.042;6.838;2023-05-10T07:34:11;-18424.75;;;14.75;100.00
24746;BME280;12845;52.042;6.838;2023-05-10T07:36:37;-18425.84;;;14.79;100.00
24746;BME280;12845;52.042;6.838;2023-05-10T07:39:02;-18423.94;;;14.72;100.00
24746;BME280;12845;52.042;6.838;2023-05-10T07:41:28;-18424.88;;;14.76;100.00
24746;BME280;12845;52.042;6.838;2023-05-10T07:43:53;-18423.66;;;14.71;100.00
24746;BME280;12845;52.042;6.838;2023-05-10T07:46:18;-18424.47;;;14.74;100.00
24746;BME280;12845;52.042;6.838;2023-05-10T07:48:44;-18425.72;;;14.79;100.00
24746;BME280;12845;52.042;6.838;2023-05-10T07:51:10;-18422.16;;;14.65;100.00
24746;BME280;12845;52.042;6.838;2023-05-10T07:53:35;-18421.88;;;14.64;100.00
24746;BME280;12845;52.042;6.838;2023-05-10T07:56:19;-18424.19;;;14.73;100.00
24746;BME280;12845;52.042;6.838;2023-05-10T07:58:44;-18424.59;;;14.75;100.00
24746;BME280;12845;52.042;6.838;2023-05-10T08:01:09;-18425.56;;;14.78;100.00
24746;BME280;12845;52.042;6.838;2023-05-10T08:03:34;-18428.72;;;14.90;100.00
24746;BME280;12845;52.042;6.838;2023-05-10T08:06:00;-18429.13;;;14.92;100.00
24746;BME280;12845;52.042;6.838;2023-05-10T08:08:25;-18429.94;;;14.95;100.00
24746;BME280;12845;52.042;6.838;2023-05-10T08:13:17;-18428.03;;;14.87;100.00
24746;BME280;12845;52.042;6.838;2023-05-10T08:15:43;-18428.72;;;14.90;100.00
24746;BME280;12845;52.042;6.838;2023-05-10T08:18:08;-18429.81;;;14.94;100.00
24746;BME280;12845;52.042;6.838;2023-05-10T08:20:33;-18432.53;;;15.04;100.00
24746;BME280;12845;52.042;6.838;2023-05-10T08:22:58;-18431.19;;;14.99;100.00
24746;BME280;12845;52.042;6.838;2023-05-10T08:25:23;-18431.44;;;15.00;100.00
24746;BME280;12845;52.042;6.838;2023-05-10T08:27:49;-18435.00;;;15.14;100.00
24746;BME280;12845;52.042;6.838;2023-05-10T08:30:14;-18434.59;;;15.12;100.00
24746;BME280;12845;52.042;6.838;2023-05-10T08:32:39;-18434.72;;;15.12;100.00
24746;BME280;12845;52.042;6.838;2023-05-10T08:35:05;-18435.84;;;15.17;100.00
24746;BME280;12845;52.042;6.838;2023-05-10T08:37:30;-18441.56;;;15.38;100.00
24746;BME280;12845;52.042;6.838;2023-05-10T08:39:57;-18445.00;;;15.51;100.00
24746;BME280;12845;52.042;6.838;2023-05-10T08:42:22;-18442.25;;;15.41;100.00
24746;BME280;12845;52.042;6.838;2023-05-10T08:44:50;-18444.03;;;15.47;100.00
24746;BME280;12845;52.042;6.838;2023-05-10T08:47:16;-18447.88;;;15.62;100.00
24746;BME280;12845;52.042;6.838;2023-05-10T08:49:43;-18445.81;;;15.54;100.00
24746;BME280;12845;52.042;6.838;2023-05-10T08:52:09;-18444.03;;;15.47;100.00
24746;BME280;12845;52.042;6.838;2023-05-10T08:54:37;-18444.59;;;15.49;100.00
24746;BME280;12845;52.042;6.838;2023-05-10T08:57:02;-18446.22;;;15.55;100.00
24746;BME280;12845;52.042;6.838;2023-05-10T08:59:28;-18444.72;;;15.50;100.00
24746;BME280;12845;52.042;6.838;2023-05-10T09:01:53;-18450.59;;;15.72;100.00
24746;BME280;12845;52.042;6.838;2023-05-10T09:04:20;-18451.69;;;15.76;100.00
24746;BME280;12845;52.042;6.838;2023-05-10T09:06:46;-18454.84;;;15.88;100.00
24746;BME280;12845;52.042;6.838;2023-05-10T09:09:11;-18451.69;;;15.76;100.00
24746;BME280;12845;52.042;6.838;2023-05-10T09:11:36;-18452.38;;;15.78;100.00
24746;BME280;12845;52.042;6.838;2023-05-10T09:14:02;-18447.72;;;15.61;100.00
24746;BME280;12845;52.042;6.838;2023-05-10T09:16:27;-18439.66;;;15.31;100.00
24746;BME280;12845;52.042;6.838;2023-05-10T09:18:52;-18435.97;;;15.17;100.00
24746;BME280;12845;52.042;6.838;2023-05-10T09:21:19;-18434.88;;;15.13;100.00
24746;BME280;12845;52.042;6.838;2023-05-10T09:23:44;-18436.38;;;15.19;100.00
24746;BME280;12845;52.042;6.838;2023-05-10T09:26:11;-18438.28;;;15.26;100.00
24746;BME280;12845;52.042;6.838;2023-05-10T09:28:56;-18438.84;;;15.28;100.00
24746;BME280;12845;52.042;6.838;2023-05-10T09:31:22;-18436.25;;;15.18;100.00
24746;BME280;12845;52.042;6.838;2023-05-10T09:33:48;-18438.03;;;15.25;100.00
24746;BME280;12845;52.042;6.838;2023-05-10T09:36:13;-18442.00;;;15.40;100.00
24746;BME280;12845;52.042;6.838;2023-05-10T09:38:45;-18446.50;;;15.56;100.00
24746;BME280;12845;52.042;6.838;2023-05-10T09:41:18;-18449.22;;;15.67;100.00
24746;BME280;12845;52.042;6.838;2023-05-10T09:43:44;-18447.47;;;15.60;100.00
24746;BME280;12845;52.042;6.838;2023-05-10T09:46:09;-18439.94;;;15.32;100.00
24746;BME280;12845;52.042;6.838;2023-05-10T09:48:39;-18441.72;;;15.39;100.00
24746;BME280;12845;52.042;6.838;2023-05-10T09:51:06;-18445.28;;;15.52;100.00
24746;BME280;12845;52.042;6.838;2023-05-10T09:53:31;-18441.56;;;15.38;100.00
24746;BME280;12845;52.042;6.838;2023-05-10T09:55:57;-18442.41;;;15.41;100.00
24746;BME280;12845;52.042;6.838;2023-05-10T09:58:22;-18441.31;;;15.37;100.00
24746;BME280;12845;52.042;6.838;2023-05-10T10:00:47;-18448.13;;;15.63;100.00
24746;BME280;12845;52.042;6.838;2023-05-10T10:03:16;-18449.38;;;15.67;100.00
24746;BME280;12845;52.042;6.838;2023-05-10T10:05:42;-18446.78;;;15.57;100.00
24746;BME280;12845;52.042;6.838;2023-05-10T10:08:08;-18443.06;;;15.44;100.00
24746;BME280;12845;52.042;6.838;2023-05-10T10:10:34;-18448.97;;;15.66;100.00
24746;BME280;12845;52.042;6.838;2023-05-10T10:12:59;-18454.44;;;15.86;100.00
24746;BME280;12845;52.042;6.838;2023-05-10T10:15:25;-18449.09;;;15.66;100.00
24746;BME280;12845;52.042;6.838;2023-05-10T10:17:51;-18449.22;;;15.67;100.00
24746;BME280;12845;52.042;6.838;2023-05-10T10:20:16;-18451.84;;;15.76;100.00
24746;BME280;12845;52.042;6.838;2023-05-10T10:22:42;-18455.94;;;15.92;100.00
24746;BME280;12845;52.042;6.838;2023-05-10T10:25:09;-18447.72;;;15.61;100.00
24746;BME280;12845;52.042;6.838;2023-05-10T10:35:33;-18466.06;;;16.30;100.00
24746;BME280;12845;52.042;6.838;2023-05-10T10:37:59;-18463.47;;;16.20;100.00
24746;BME280;12845;52.042;6.838;2023-05-10T10:40:28;-18467.41;;;16.35;100.00
24746;BME280;12845;52.042;6.838;2023-05-10T10:42:54;-18461.13;;;16.11;100.00
24746;BME280;12845;52.042;6.838;2023-05-10T10:45:20;-18458.81;;;16.02;100.00
24746;BME280;12845;52.042;6.838;2023-05-10T10:47:46;-18461.53;;;16.13;100.00
24746;BME280;12845;52.042;6.838;2023-05-10T10:50:11;-18462.38;;;16.16;100.00
24746;BME280;12845;52.042;6.838;2023-05-10T10:52:44;-18467.28;;;16.34;100.00
24746;BME280;12845;52.042;6.838;2023-05-10T10:55:10;-18467.00;;;16.33;100.00
24746;BME280;12845;52.042;6.838;2023-05-10T10:57:52;-18469.88;;;16.44;100.00
24746;BME280;12845;52.042;6.838;2023-05-10T11:00:29;-18473.28;;;16.57;100.00
24746;BME280;12845;52.042;6.838;2023-05-10T11:07:58;-18492.81;;;17.30;100.00
24746;BME280;12845;52.042;6.838;2023-05-10T11:10:24;-18495.69;;;17.41;100.00
24746;BME280;12845;52.042;6.838;2023-05-10T11:15:19;-18491.72;;;17.26;100.00
24746;BME280;12845;52.042;6.838;2023-05-10T11:17:44;-18486.13;;;17.05;100.00
24746;BME280;12845;52.042;6.838;2023-05-10T11:20:14;-18482.72;;;16.92;100.00
24746;BME280;12845;52.042;6.838;2023-05-10T11:22:51;-18482.19;;;16.90;100.00
24746;BME280;12845;52.042;6.838;2023-05-10T11:25:17;-18477.81;;;16.74;100.00
24746;BME280;12845;52.042;6.838;2023-05-10T11:27:42;-18472.88;;;16.55;100.00
24746;BME280;12845;52.042;6.838;2023-05-10T11:30:09;-18468.94;;;16.40;100.00
24746;BME280;12845;52.042;6.838;2023-05-10T11:32:36;-18466.75;;;16.32;100.00
24746;BME280;12845;52.042;6.838;2023-05-10T11:35:06;-18466.59;;;16.32;100.00
24746;BME280;12845;52.042;6.838;2023-05-10T11:37:31;-18464.97;;;16.26;100.00
24746;BME280;12845;52.042;6.838;2023-05-10T11:39:59;-18458.81;;;16.02;100.00
24746;BME280;12845;52.042;6.838;2023-05-10T11:42:24;-18457.03;;;15.96;100.00
24746;BME280;12845;52.042;6.838;2023-05-10T11:44:49;-18451.44;;;15.75;100.00
24746;BME280;12845;52.042;6.838;2023-05-10T11:47:14;-18451.56;;;15.75;100.00
24746;BME280;12845;52.042;6.838;2023-05-10T11:49:43;-18447.88;;;15.62;100.00
24746;BME280;12845;52.042;6.838;2023-05-10T11:52:08;-18444.72;;;15.50;100.00
24746;BME280;12845;52.042;6.838;2023-05-10T11:54:33;-18444.19;;;15.48;100.00
24746;BME280;12845;52.042;6.838;2023-05-10T11:57:01;-18442.66;;;15.42;100.00
24746;BME280;12845;52.042;6.838;2023-05-10T11:59:27;-18447.03;;;15.58;100.00
24746;BME280;12845;52.042;6.838;2023-05-10T12:01:52;-18451.97;;;15.77;100.00
24746;BME280;12845;52.042;6.838;2023-05-10T12:04:17;-18443.91;;;15.47;100.00
24746;BME280;12845;52.042;6.838;2023-05-10T12:06:43;-18442.66;;;15.42;100.00
24746;BME280;12845;52.042;6.838;2023-05-10T12:09:09;-18444.31;;;15.48;100.00
24746;BME280;12845;52.042;6.838;2023-05-10T12:11:36;-18448.81;;;15.65;100.00
24746;BME280;12845;52.042;6.838;2023-05-10T12:14:03;-18443.50;;;15.45;100.00
24746;BME280;12845;52.042;6.838;2023-05-10T12:16:29;-18447.59;;;15.61;100.00
24746;BME280;12845;52.042;6.838;2023-05-10T12:18:58;-18449.78;;;15.69;100.00
24746;BME280;12845;52.042;6.838;2023-05-10T12:21:23;-18453.34;;;15.82;100.00
24746;BME280;12845;52.042;6.838;2023-05-10T12:23:53;-18461.13;;;16.11;100.00
24746;BME280;12845;52.042;6.838;2023-05-10T12:26:22;-18465.09;;;16.26;100.00
24746;BME280;12845;52.042;6.838;2023-05-10T12:28:48;-18463.59;;;16.20;100.00
24746;BME280;12845;52.042;6.838;2023-05-10T12:31:13;-18463.47;;;16.20;100.00
24746;BME280;12845;52.042;6.838;2023-05-10T12:33:42;-18467.56;;;16.35;100.00
24746;BME280;12845;52.042;6.838;2023-05-10T12:36:12;-18469.19;;;16.41;100.00
24746;BME280;12845;52.042;6.838;2023-05-10T12:38:38;-18464.28;;;16.23;100.00
24746;BME280;12845;52.042;6.838;2023-05-10T12:41:04;-18463.31;;;16.19;100.00
24746;BME280;12845;52.042;6.838;2023-05-10T12:43:31;-18463.47;;;16.20;100.00
24746;BME280;12845;52.042;6.838;2023-05-10T12:45:56;-18462.22;;;16.15;100.00
24746;BME280;12845;52.042;6.838;2023-05-10T12:48:22;-18465.91;;;16.29;100.00
24746;BME280;12845;52.042;6.838;2023-05-10T12:50:47;-18468.66;;;16.39;100.00
24746;BME280;12845;52.042;6.838;2023-05-10T12:53:13;-18467.69;;;16.36;100.00
24746;BME280;12845;52.042;6.838;2023-05-10T12:55:40;-18467.56;;;16.35;100.00
24746;BME280;12845;52.042;6.838;2023-05-10T12:58:05;-18466.59;;;16.32;100.00
24746;BME280;12845;52.042;6.838;2023-05-10T13:00:30;-18467.81;;;16.36;100.00
24746;BME280;12845;52.042;6.838;2023-05-10T13:02:56;-18461.81;;;16.14;100.00